Terminal Aerodrome Forecast
Issued by NWS

Current Version | Previous Version | Graphics & Text | Print | Product List | Glossary On
Versions: 1 2 3 4 5 6 7 8 9 10 11 12 13 14 15 16 17 18 19 20 21 22
701
FTUS41 KILN 220206 AAA
TAFLCK
TAF AMD
KLCK 220206Z 2202/2224 19006KT 5SM BR VCSH SCT018 OVC025
     FM220900 16005KT P6SM BKN080 WS020/22040KT
     FM221700 17012G20KT P6SM SCT100 BKN150 WS020/22040KT
     FM221900 17012G20KT P6SM VCSH BKN060
     FM222200 17012G20KT 4SM -SHRA BR OVC012=

USA.gov is the U.S. government's official web portal to all federal, state and local government web resources and services.